sensor_id;sensor_type;location;lat;lon;timestamp;temperature;humidity
22850;DHT22;11591;44.792;10.358;2022-07-23T00:00:32;31.10;90.60
22850;DHT22;11591;44.792;10.358;2022-07-23T00:02:58;31.10;90.70
22850;DHT22;11591;44.792;10.358;2022-07-23T00:05:24;31.00;90.90
22850;DHT22;11591;44.792;10.358;2022-07-23T00:07:50;31.00;91.30
22850;DHT22;11591;44.792;10.358;2022-07-23T00:10:16;31.00;91.00
22850;DHT22;11591;44.792;10.358;2022-07-23T00:12:42;31.00;90.50
22850;DHT22;11591;44.792;10.358;2022-07-23T00:15:08;31.00;90.50
22850;DHT22;11591;44.792;10.358;2022-07-23T00:17:34;31.00;90.50
22850;DHT22;11591;44.792;10.358;2022-07-23T00:20:00;30.90;90.60
22850;DHT22;11591;44.792;10.358;2022-07-23T00:22:27;30.90;90.70
22850;DHT22;11591;44.792;10.358;2022-07-23T00:24:55;30.90;90.70
22850;DHT22;11591;44.792;10.358;2022-07-23T00:27:21;30.90;90.80
22850;DHT22;11591;44.792;10.358;2022-07-23T00:29:47;30.90;90.90
22850;DHT22;11591;44.792;10.358;2022-07-23T00:32:13;30.80;91.00
22850;DHT22;11591;44.792;10.358;2022-07-23T00:34:39;30.70;90.90
22850;DHT22;11591;44.792;10.358;2022-07-23T00:37:05;30.60;90.90
22850;DHT22;11591;44.792;10.358;2022-07-23T00:39:31;30.60;91.00
22850;DHT22;11591;44.792;10.358;2022-07-23T00:41:56;30.50;90.90
22850;DHT22;11591;44.792;10.358;2022-07-23T00:44:25;30.50;91.00
22850;DHT22;11591;44.792;10.358;2022-07-23T00:46:56;30.50;90.90
22850;DHT22;11591;44.792;10.358;2022-07-23T00:49:26;30.50;90.80
22850;DHT22;11591;44.792;10.358;2022-07-23T00:51:53;30.40;90.70
22850;DHT22;11591;44.792;10.358;2022-07-23T00:54:21;30.40;90.60
22850;DHT22;11591;44.792;10.358;2022-07-23T00:56:47;30.40;90.40
22850;DHT22;11591;44.792;10.358;2022-07-23T00:59:13;30.30;90.30
22850;DHT22;11591;44.792;10.358;2022-07-23T01:01:40;30.30;90.30
22850;DHT22;11591;44.792;10.358;2022-07-23T01:04:06;30.20;90.10
22850;DHT22;11591;44.792;10.358;2022-07-23T01:06:36;30.20;90.00
22850;DHT22;11591;44.792;10.358;2022-07-23T01:09:04;30.20;89.90
22850;DHT22;11591;44.792;10.358;2022-07-23T01:11:31;30.20;89.80
22850;DHT22;11591;44.792;10.358;2022-07-23T01:13:58;30.10;89.60
22850;DHT22;11591;44.792;10.358;2022-07-23T01:16:24;30.20;89.60
22850;DHT22;11591;44.792;10.358;2022-07-23T01:18:51;30.40;89.00
22850;DHT22;11591;44.792;10.358;2022-07-23T01:21:18;30.70;88.40
22850;DHT22;11591;44.792;10.358;2022-07-23T01:23:44;31.00;87.70
22850;DHT22;11591;44.792;10.358;2022-07-23T01:26:10;31.10;87.30
22850;DHT22;11591;44.792;10.358;2022-07-23T01:28:37;31.20;87.00
22850;DHT22;11591;44.792;10.358;2022-07-23T01:31:03;31.40;86.70
22850;DHT22;11591;44.792;10.358;2022-07-23T01:33:33;31.40;86.10
22850;DHT22;11591;44.792;10.358;2022-07-23T01:35:59;31.30;86.00
22850;DHT22;11591;44.792;10.358;2022-07-23T01:38:26;31.30;86.00
22850;DHT22;11591;44.792;10.358;2022-07-23T01:40:52;31.30;86.00
22850;DHT22;11591;44.792;10.358;2022-07-23T01:43:18;31.30;85.80
22850;DHT22;11591;44.792;10.358;2022-07-23T01:45:44;31.10;86.10
22850;DHT22;11591;44.792;10.358;2022-07-23T01:48:11;31.00;86.00
22850;DHT22;11591;44.792;10.358;2022-07-23T01:50:46;31.00;85.70
22850;DHT22;11591;44.792;10.358;2022-07-23T01:53:20;30.90;85.60
22850;DHT22;11591;44.792;10.358;2022-07-23T01:55:47;30.60;86.00
22850;DHT22;11591;44.792;10.358;2022-07-23T01:58:13;30.30;86.10
22850;DHT22;11591;44.792;10.358;2022-07-23T02:00:38;29.90;86.40
22850;DHT22;11591;44.792;10.358;2022-07-23T02:03:04;29.80;86.90
22850;DHT22;11591;44.792;10.358;2022-07-23T02:05:31;29.70;87.00
22850;DHT22;11591;44.792;10.358;2022-07-23T02:07:59;29.50;87.00
22850;DHT22;11591;44.792;10.358;2022-07-23T02:10:25;29.40;87.40
22850;DHT22;11591;44.792;10.358;2022-07-23T02:12:51;29.30;87.60
22850;DHT22;11591;44.792;10.358;2022-07-23T02:15:17;29.20;87.90
22850;DHT22;11591;44.792;10.358;2022-07-23T02:17:42;29.10;88.20
22850;DHT22;11591;44.792;10.358;2022-07-23T02:20:10;29.10;88.30
22850;DHT22;11591;44.792;10.358;2022-07-23T02:22:36;29.00;88.50
22850;DHT22;11591;44.792;10.358;2022-07-23T02:25:06;28.90;88.90
22850;DHT22;11591;44.792;10.358;2022-07-23T02:27:33;28.70;89.20
22850;DHT22;11591;44.792;10.358;2022-07-23T02:29:59;28.70;89.30
22850;DHT22;11591;44.792;10.358;2022-07-23T02:32:25;28.60;89.00
22850;DHT22;11591;44.792;10.358;2022-07-23T02:34:51;28.60;88.10
22850;DHT22;11591;44.792;10.358;2022-07-23T02:37:19;28.60;87.20
22850;DHT22;11591;44.792;10.358;2022-07-23T02:39:45;28.60;85.50
22850;DHT22;11591;44.792;10.358;2022-07-23T02:42:12;28.70;84.50
22850;DHT22;11591;44.792;10.358;2022-07-23T02:44:38;28.80;83.90
22850;DHT22;11591;44.792;10.358;2022-07-23T02:47:04;28.80;83.10
22850;DHT22;11591;44.792;10.358;2022-07-23T02:49:30;28.90;82.30
22850;DHT22;11591;44.792;10.358;2022-07-23T02:51:56;29.00;81.40
22850;DHT22;11591;44.792;10.358;2022-07-23T02:54:22;29.10;81.70
22850;DHT22;11591;44.792;10.358;2022-07-23T02:56:47;29.10;82.10
22850;DHT22;11591;44.792;10.358;2022-07-23T02:59:13;29.10;82.30
22850;DHT22;11591;44.792;10.358;2022-07-23T03:01:39;29.10;82.40
22850;DHT22;11591;44.792;10.358;2022-07-23T03:04:06;29.20;82.40
22850;DHT22;11591;44.792;10.358;2022-07-23T03:06:32;29.20;82.10
22850;DHT22;11591;44.792;10.358;2022-07-23T03:08:57;29.20;82.00
22850;DHT22;11591;44.792;10.358;2022-07-23T03:11:23;29.10;81.70
22850;DHT22;11591;44.792;10.358;2022-07-23T03:13:49;29.10;82.00
22850;DHT22;11591;44.792;10.358;2022-07-23T03:16:15;29.10;81.50
22850;DHT22;11591;44.792;10.358;2022-07-23T03:18:41;29.10;81.30
22850;DHT22;11591;44.792;10.358;2022-07-23T03:21:08;29.10;81.30
22850;DHT22;11591;44.792;10.358;2022-07-23T03:23:34;29.10;81.20
22850;DHT22;11591;44.792;10.358;2022-07-23T03:26:00;29.10;81.00
22850;DHT22;11591;44.792;10.358;2022-07-23T03:28:25;29.10;81.00
22850;DHT22;11591;44.792;10.358;2022-07-23T03:30:51;29.10;80.60
22850;DHT22;11591;44.792;10.358;2022-07-23T03:33:18;29.00;80.60
22850;DHT22;11591;44.792;10.358;2022-07-23T03:35:46;29.00;80.10
22850;DHT22;11591;44.792;10.358;2022-07-23T03:38:20;28.90;80.00
22850;DHT22;11591;44.792;10.358;2022-07-23T03:40:46;28.90;80.20
22850;DHT22;11591;44.792;10.358;2022-07-23T03:43:12;28.90;80.20
22850;DHT22;11591;44.792;10.358;2022-07-23T03:45:37;28.90;80.10
22850;DHT22;11591;44.792;10.358;2022-07-23T03:48:04;28.90;80.10
22850;DHT22;11591;44.792;10.358;2022-07-23T03:50:30;28.90;80.10
22850;DHT22;11591;44.792;10.358;2022-07-23T03:52:55;28.90;80.10
22850;DHT22;11591;44.792;10.358;2022-07-23T03:55:21;28.80;80.20
22850;DHT22;11591;44.792;10.358;2022-07-23T03:57:47;28.70;80.20
22850;DHT22;11591;44.792;10.358;2022-07-23T04:00:14;28.70;79.70
22850;DHT22;11591;44.792;10.358;2022-07-23T04:02:40;28.70;79.60
22850;DHT22;11591;44.792;10.358;2022-07-23T04:05:07;28.70;79.70
22850;DHT22;11591;44.792;10.358;2022-07-23T04:07:33;28.70;79.50
22850;DHT22;11591;44.792;10.358;2022-07-23T04:09:59;28.70;79.60
22850;DHT22;11591;44.792;10.358;2022-07-23T04:12:25;28.80;79.60
22850;DHT22;11591;44.792;10.358;2022-07-23T04:14:52;28.80;79.40
22850;DHT22;11591;44.792;10.358;2022-07-23T04:17:18;28.80;79.30
22850;DHT22;11591;44.792;10.358;2022-07-23T04:19:44;28.80;79.20
22850;DHT22;11591;44.792;10.358;2022-07-23T04:22:12;28.70;79.20
22850;DHT22;11591;44.792;10.358;2022-07-23T04:24:38;28.70;79.20
22850;DHT22;11591;44.792;10.358;2022-07-23T04:27:04;28.70;79.20
22850;DHT22;11591;44.792;10.358;2022-07-23T04:29:31;28.70;79.10
22850;DHT22;11591;44.792;10.358;2022-07-23T04:31:57;28.80;79.10
22850;DHT22;11591;44.792;10.358;2022-07-23T04:34:23;28.80;79.00
22850;DHT22;11591;44.792;10.358;2022-07-23T04:36:50;28.80;79.00
22850;DHT22;11591;44.792;10.358;2022-07-23T04:39:15;28.80;79.00
22850;DHT22;11591;44.792;10.358;2022-07-23T04:41:41;28.80;79.20
22850;DHT22;11591;44.792;10.358;2022-07-23T04:44:07;28.80;79.20
22850;DHT22;11591;44.792;10.358;2022-07-23T04:46:34;28.80;79.20
22850;DHT22;11591;44.792;10.358;2022-07-23T04:49:00;28.90;79.10
22850;DHT22;11591;44.792;10.358;2022-07-23T04:51:26;28.90;79.10
22850;DHT22;11591;44.792;10.358;2022-07-23T04:53:52;28.90;79.10
22850;DHT22;11591;44.792;10.358;2022-07-23T04:56:18;28.90;79.50
22850;DHT22;11591;44.792;10.358;2022-07-23T04:58:44;28.90;79.40
22850;DHT22;11591;44.792;10.358;2022-07-23T05:01:10;29.00;80.30
22850;DHT22;11591;44.792;10.358;2022-07-23T05:03:37;28.90;80.70
22850;DHT22;11591;44.792;10.358;2022-07-23T05:06:04;28.70;80.70
22850;DHT22;11591;44.792;10.358;2022-07-23T05:08:30;28.70;80.60
22850;DHT22;11591;44.792;10.358;2022-07-23T05:10:57;28.80;80.30
22850;DHT22;11591;44.792;10.358;2022-07-23T05:13:23;28.90;80.10
22850;DHT22;11591;44.792;10.358;2022-07-23T05:15:53;28.90;82.30
22850;DHT22;11591;44.792;10.358;2022-07-23T05:18:19;28.70;82.50
22850;DHT22;11591;44.792;10.358;2022-07-23T05:20:45;28.60;83.60
22850;DHT22;11591;44.792;10.358;2022-07-23T05:23:15;28.30;84.80
22850;DHT22;11591;44.792;10.358;2022-07-23T05:25:41;28.20;85.50
22850;DHT22;11591;44.792;10.358;2022-07-23T05:28:07;28.10;85.10
22850;DHT22;11591;44.792;10.358;2022-07-23T05:30:33;28.10;85.20
22850;DHT22;11591;44.792;10.358;2022-07-23T05:33:02;28.20;84.40
22850;DHT22;11591;44.792;10.358;2022-07-23T05:35:29;28.30;85.40
22850;DHT22;11591;44.792;10.358;2022-07-23T05:38:11;28.30;86.00
22850;DHT22;11591;44.792;10.358;2022-07-23T05:40:37;28.50;86.00
22850;DHT22;11591;44.792;10.358;2022-07-23T05:43:03;28.50;85.80
22850;DHT22;11591;44.792;10.358;2022-07-23T05:45:29;28.60;85.80
22850;DHT22;11591;44.792;10.358;2022-07-23T05:47:55;28.70;85.40
22850;DHT22;11591;44.792;10.358;2022-07-23T05:50:32;28.80;83.60
22850;DHT22;11591;44.792;10.358;2022-07-23T05:53:05;28.90;83.40
22850;DHT22;11591;44.792;10.358;2022-07-23T05:55:50;28.90;82.50
22850;DHT22;11591;44.792;10.358;2022-07-23T05:58:16;29.00;82.70
22850;DHT22;11591;44.792;10.358;2022-07-23T06:00:41;29.00;82.10
22850;DHT22;11591;44.792;10.358;2022-07-23T06:03:07;29.10;82.30
22850;DHT22;11591;44.792;10.358;2022-07-23T06:05:33;29.10;81.80
22850;DHT22;11591;44.792;10.358;2022-07-23T06:07:59;29.20;81.70
22850;DHT22;11591;44.792;10.358;2022-07-23T06:10:26;29.30;81.60
22850;DHT22;11591;44.792;10.358;2022-07-23T06:12:52;29.40;81.40
22850;DHT22;11591;44.792;10.358;2022-07-23T06:15:18;29.30;81.10
22850;DHT22;11591;44.792;10.358;2022-07-23T06:17:45;29.40;81.90
22850;DHT22;11591;44.792;10.358;2022-07-23T06:20:12;29.40;80.70
22850;DHT22;11591;44.792;10.358;2022-07-23T06:22:39;29.40;81.10
22850;DHT22;11591;44.792;10.358;2022-07-23T06:25:06;29.40;81.50
22850;DHT22;11591;44.792;10.358;2022-07-23T06:27:32;29.40;81.90
22850;DHT22;11591;44.792;10.358;2022-07-23T06:29:58;29.40;82.20
22850;DHT22;11591;44.792;10.358;2022-07-23T06:32:24;29.40;81.90
22850;DHT22;11591;44.792;10.358;2022-07-23T06:34:50;29.40;82.10
22850;DHT22;11591;44.792;10.358;2022-07-23T06:37:16;29.50;82.20
22850;DHT22;11591;44.792;10.358;2022-07-23T06:39:42;29.50;82.10
22850;DHT22;11591;44.792;10.358;2022-07-23T06:42:08;29.50;82.10
22850;DHT22;11591;44.792;10.358;2022-07-23T06:44:38;29.60;82.40
22850;DHT22;11591;44.792;10.358;2022-07-23T06:47:07;29.70;82.30
22850;DHT22;11591;44.792;10.358;2022-07-23T06:49:33;29.70;81.60
22850;DHT22;11591;44.792;10.358;2022-07-23T06:51:58;29.80;81.70
22850;DHT22;11591;44.792;10.358;2022-07-23T06:54:24;29.80;80.20
22850;DHT22;11591;44.792;10.358;2022-07-23T06:56:50;29.90;80.50
22850;DHT22;11591;44.792;10.358;2022-07-23T06:59:16;29.90;80.70
22850;DHT22;11591;44.792;10.358;2022-07-23T07:01:42;29.90;80.60
22850;DHT22;11591;44.792;10.358;2022-07-23T07:04:08;30.00;81.10
22850;DHT22;11591;44.792;10.358;2022-07-23T07:06:34;30.00;81.00
22850;DHT22;11591;44.792;10.358;2022-07-23T07:09:00;30.10;81.00
22850;DHT22;11591;44.792;10.358;2022-07-23T07:11:26;30.10;81.10
22850;DHT22;11591;44.792;10.358;2022-07-23T07:13:52;30.10;81.50
22850;DHT22;11591;44.792;10.358;2022-07-23T07:16:18;30.20;81.90
22850;DHT22;11591;44.792;10.358;2022-07-23T07:18:43;30.20;81.90
22850;DHT22;11591;44.792;10.358;2022-07-23T07:21:09;30.40;82.30
22850;DHT22;11591;44.792;10.358;2022-07-23T07:23:35;30.90;82.20
22850;DHT22;11591;44.792;10.358;2022-07-23T07:26:01;31.10;81.80
22850;DHT22;11591;44.792;10.358;2022-07-23T07:28:26;31.30;81.50
22850;DHT22;11591;44.792;10.358;2022-07-23T07:30:52;31.60;82.80
22850;DHT22;11591;44.792;10.358;2022-07-23T07:33:18;31.50;82.50
22850;DHT22;11591;44.792;10.358;2022-07-23T07:35:44;31.30;83.10
22850;DHT22;11591;44.792;10.358;2022-07-23T07:38:10;31.10;85.30
22850;DHT22;11591;44.792;10.358;2022-07-23T07:40:36;31.00;85.10
22850;DHT22;11591;44.792;10.358;2022-07-23T07:43:02;30.90;86.00
22850;DHT22;11591;44.792;10.358;2022-07-23T07:45:29;31.20;86.20
22850;DHT22;11591;44.792;10.358;2022-07-23T07:47:54;31.50;85.40
22850;DHT22;11591;44.792;10.358;2022-07-23T07:50:21;31.40;85.10
22850;DHT22;11591;44.792;10.358;2022-07-23T07:52:47;31.40;85.70
22850;DHT22;11591;44.792;10.358;2022-07-23T07:55:13;31.40;85.90
22850;DHT22;11591;44.792;10.358;2022-07-23T07:57:40;31.20;87.10
22850;DHT22;11591;44.792;10.358;2022-07-23T08:00:07;31.10;87.70
22850;DHT22;11591;44.792;10.358;2022-07-23T08:02:50;31.40;87.80
22850;DHT22;11591;44.792;10.358;2022-07-23T08:07:46;32.20;87.10
22850;DHT22;11591;44.792;10.358;2022-07-23T08:10:12;32.30;87.00
22850;DHT22;11591;44.792;10.358;2022-07-23T08:15:06;32.00;88.10
22850;DHT22;11591;44.792;10.358;2022-07-23T08:17:32;31.60;89.20
22850;DHT22;11591;44.792;10.358;2022-07-23T08:19:58;31.40;89.90
22850;DHT22;11591;44.792;10.358;2022-07-23T08:22:23;31.50;90.00
22850;DHT22;11591;44.792;10.358;2022-07-23T08:24:49;31.60;89.70
22850;DHT22;11591;44.792;10.358;2022-07-23T08:27:15;31.60;89.60
22850;DHT22;11591;44.792;10.358;2022-07-23T08:29:41;31.50;89.80
22850;DHT22;11591;44.792;10.358;2022-07-23T08:32:07;31.40;89.50
22850;DHT22;11591;44.792;10.358;2022-07-23T08:34:33;31.50;88.40
22850;DHT22;11591;44.792;10.358;2022-07-23T08:36:58;31.70;87.00
22850;DHT22;11591;44.792;10.358;2022-07-23T08:39:24;31.70;87.00
22850;DHT22;11591;44.792;10.358;2022-07-23T08:41:50;31.60;87.80
22850;DHT22;11591;44.792;10.358;2022-07-23T08:44:16;31.40;88.40
22850;DHT22;11591;44.792;10.358;2022-07-23T08:46:43;31.40;88.10
22850;DHT22;11591;44.792;10.358;2022-07-23T08:49:10;31.30;89.70
22850;DHT22;11591;44.792;10.358;2022-07-23T08:51:36;31.30;89.90
22850;DHT22;11591;44.792;10.358;2022-07-23T08:54:02;31.30;89.80
22850;DHT22;11591;44.792;10.358;2022-07-23T08:56:29;31.30;89.90
22850;DHT22;11591;44.792;10.358;2022-07-23T08:58:55;31.40;90.10
22850;DHT22;11591;44.792;10.358;2022-07-23T09:01:21;31.50;90.40
22850;DHT22;11591;44.792;10.358;2022-07-23T09:03:47;31.50;90.50
22850;DHT22;11591;44.792;10.358;2022-07-23T09:06:12;31.60;90.60
22850;DHT22;11591;44.792;10.358;2022-07-23T09:08:39;31.60;90.70
22850;DHT22;11591;44.792;10.358;2022-07-23T09:11:07;31.60;90.40
22850;DHT22;11591;44.792;10.358;2022-07-23T09:13:40;31.60;90.50
22850;DHT22;11591;44.792;10.358;2022-07-23T09:16:12;31.70;90.60
22850;DHT22;11591;44.792;10.358;2022-07-23T09:18:42;31.70;90.70
22850;DHT22;11591;44.792;10.358;2022-07-23T09:21:32;31.70;90.80
22850;DHT22;11591;44.792;10.358;2022-07-23T09:24:03;31.80;91.00
22850;DHT22;11591;44.792;10.358;2022-07-23T09:26:39;31.80;90.70
22850;DHT22;11591;44.792;10.358;2022-07-23T09:29:09;31.80;90.60
22850;DHT22;11591;44.792;10.358;2022-07-23T09:31:53;31.80;90.40
22850;DHT22;11591;44.792;10.358;2022-07-23T09:34:26;31.90;90.30
22850;DHT22;11591;44.792;10.358;2022-07-23T09:36:54;31.80;91.00
22850;DHT22;11591;44.792;10.358;2022-07-23T09:39:33;31.90;91.50
22850;DHT22;11591;44.792;10.358;2022-07-23T09:42:18;32.00;90.20
22850;DHT22;11591;44.792;10.358;2022-07-23T09:44:49;32.00;90.20
22850;DHT22;11591;44.792;10.358;2022-07-23T09:47:17;32.10;91.40
22850;DHT22;11591;44.792;10.358;2022-07-23T09:50:08;32.10;91.50
22850;DHT22;11591;44.792;10.358;2022-07-23T09:52:43;32.20;91.70
22850;DHT22;11591;44.792;10.358;2022-07-23T09:55:09;32.20;90.10
22850;DHT22;11591;44.792;10.358;2022-07-23T09:57:35;32.30;90.10
22850;DHT22;11591;44.792;10.358;2022-07-23T10:00:04;32.30;90.40
22850;DHT22;11591;44.792;10.358;2022-07-23T10:02:32;32.30;90.50
22850;DHT22;11591;44.792;10.358;2022-07-23T10:05:17;32.30;90.30
22850;DHT22;11591;44.792;10.358;2022-07-23T10:08:11;32.30;90.30
22850;DHT22;11591;44.792;10.358;2022-07-23T10:10:50;32.40;90.00
22850;DHT22;11591;44.792;10.358;2022-07-23T10:13:36;32.40;90.20
22850;DHT22;11591;44.792;10.358;2022-07-23T10:16:13;32.40;88.80
22850;DHT22;11591;44.792;10.358;2022-07-23T10:18:39;32.50;89.10
22850;DHT22;11591;44.792;10.358;2022-07-23T10:21:07;32.50;89.50
22850;DHT22;11591;44.792;10.358;2022-07-23T10:23:40;32.50;89.30
22850;DHT22;11591;44.792;10.358;2022-07-23T10:26:23;32.60;89.70
22850;DHT22;11591;44.792;10.358;2022-07-23T10:36:58;32.80;87.90
22850;DHT22;11591;44.792;10.358;2022-07-23T10:39:33;32.80;88.90
22850;DHT22;11591;44.792;10.358;2022-07-23T10:42:13;32.80;88.60
22850;DHT22;11591;44.792;10.358;2022-07-23T10:44:44;32.90;89.10
22850;DHT22;11591;44.792;10.358;2022-07-23T10:47:12;33.00;87.60
22850;DHT22;11591;44.792;10.358;2022-07-23T10:49:47;33.10;87.30
22850;DHT22;11591;44.792;10.358;2022-07-23T10:52:22;33.10;85.20
22850;DHT22;11591;44.792;10.358;2022-07-23T10:55:39;33.30;84.70
22850;DHT22;11591;44.792;10.358;2022-07-23T10:57:49;33.30;85.40
22850;DHT22;11591;44.792;10.358;2022-07-23T11:00:23;34.00;85.30
22850;DHT22;11591;44.792;10.358;2022-07-23T11:02:55;34.90;84.00
22850;DHT22;11591;44.792;10.358;2022-07-23T11:05:46;35.80;82.60
22850;DHT22;11591;44.792;10.358;2022-07-23T11:08:21;35.80;81.00
22850;DHT22;11591;44.792;10.358;2022-07-23T11:10:52;35.80;82.20
22850;DHT22;11591;44.792;10.358;2022-07-23T11:37:06;37.80;77.50
22850;DHT22;11591;44.792;10.358;2022-07-23T11:39:32;37.30;78.70
22850;DHT22;11591;44.792;10.358;2022-07-23T11:42:00;36.90;80.10
22850;DHT22;11591;44.792;10.358;2022-07-23T11:44:34;37.30;79.20
22850;DHT22;11591;44.792;10.358;2022-07-23T11:47:00;37.80;77.50
22850;DHT22;11591;44.792;10.358;2022-07-23T11:49:27;38.50;77.30
22850;DHT22;11591;44.792;10.358;2022-07-23T11:52:12;39.10;76.10
22850;DHT22;11591;44.792;10.358;2022-07-23T11:57:13;38.60;75.60
22850;DHT22;11591;44.792;10.358;2022-07-23T11:59:39;37.80;76.40
22850;DHT22;11591;44.792;10.358;2022-07-23T12:02:06;37.00;77.10
22850;DHT22;11591;44.792;10.358;2022-07-23T12:04:47;36.40;77.90
22850;DHT22;11591;44.792;10.358;2022-07-23T12:07:39;36.00;79.20
22850;DHT22;11591;44.792;10.358;2022-07-23T12:10:12;35.80;79.70
22850;DHT22;11591;44.792;10.358;2022-07-23T12:12:47;35.60;80.30
22850;DHT22;11591;44.792;10.358;2022-07-23T12:15:17;35.60;79.70
22850;DHT22;11591;44.792;10.358;2022-07-23T12:17:45;35.50;79.20
22850;DHT22;11591;44.792;10.358;2022-07-23T12:20:18;35.40;79.40
22850;DHT22;11591;44.792;10.358;2022-07-23T12:22:47;35.30;79.40
22850;DHT22;11591;44.792;10.358;2022-07-23T12:25:18;35.20;79.90
22850;DHT22;11591;44.792;10.358;2022-07-23T12:27:45;35.20;81.60
22850;DHT22;11591;44.792;10.358;2022-07-23T12:32:45;35.30;82.10
22850;DHT22;11591;44.792;10.358;2022-07-23T12:35:11;35.30;82.10
22850;DHT22;11591;44.792;10.358;2022-07-23T12:37:39;35.30;81.40
22850;DHT22;11591;44.792;10.358;2022-07-23T12:40:25;35.30;81.40
22850;DHT22;11591;44.792;10.358;2022-07-23T12:42:53;35.40;81.20
22850;DHT22;11591;44.792;10.358;2022-07-23T12:45:20;35.40;81.70
22850;DHT22;11591;44.792;10.358;2022-07-23T12:48:02;35.40;80.90
22850;DHT22;11591;44.792;10.358;2022-07-23T12:50:41;35.40;81.90
22850;DHT22;11591;44.792;10.358;2022-07-23T12:53:09;35.40;81.80
22850;DHT22;11591;44.792;10.358;2022-07-23T12:55:35;35.40;80.70
22850;DHT22;11591;44.792;10.358;2022-07-23T12:58:13;35.40;80.90
22850;DHT22;11591;44.792;10.358;2022-07-23T13:01:04;35.40;81.30
22850;DHT22;11591;44.792;10.358;2022-07-23T13:03:38;35.50;82.10
22850;DHT22;11591;44.792;10.358;2022-07-23T13:06:10;35.60;81.40
22850;DHT22;11591;44.792;10.358;2022-07-23T13:08:38;35.60;81.40
22850;DHT22;11591;44.792;10.358;2022-07-23T13:11:05;35.60;80.80
22850;DHT22;11591;44.792;10.358;2022-07-23T13:13:33;35.60;80.70
22850;DHT22;11591;44.792;10.358;2022-07-23T13:16:00;35.60;80.80
22850;DHT22;11591;44.792;10.358;2022-07-23T13:18:26;35.60;81.00
22850;DHT22;11591;44.792;10.358;2022-07-23T13:20:53;35.60;80.90
22850;DHT22;11591;44.792;10.358;2022-07-23T13:23:19;35.70;81.00
22850;DHT22;11591;44.792;10.358;2022-07-23T13:25:45;35.80;80.50
22850;DHT22;11591;44.792;10.358;2022-07-23T13:28:12;35.80;81.00
22850;DHT22;11591;44.792;10.358;2022-07-23T13:30:39;35.90;81.20
22850;DHT22;11591;44.792;10.358;2022-07-23T13:33:05;35.90;81.00
22850;DHT22;11591;44.792;10.358;2022-07-23T13:35:32;35.90;81.70
22850;DHT22;11591;44.792;10.358;2022-07-23T13:37:59;36.00;81.20
22850;DHT22;11591;44.792;10.358;2022-07-23T13:40:24;36.00;81.40
22850;DHT22;11591;44.792;10.358;2022-07-23T13:42:50;36.00;80.80
22850;DHT22;11591;44.792;10.358;2022-07-23T13:45:16;35.90;81.40
22850;DHT22;11591;44.792;10.358;2022-07-23T13:47:42;35.80;81.80
22850;DHT22;11591;44.792;10.358;2022-07-23T13:50:08;35.90;80.90
22850;DHT22;11591;44.792;10.358;2022-07-23T13:52:34;35.90;80.00
22850;DHT22;11591;44.792;10.358;2022-07-23T13:55:01;35.90;80.80
22850;DHT22;11591;44.792;10.358;2022-07-23T13:57:30;35.90;81.30
22850;DHT22;11591;44.792;10.358;2022-07-23T13:59:56;36.00;81.50
22850;DHT22;11591;44.792;10.358;2022-07-23T14:02:22;35.90;81.30
22850;DHT22;11591;44.792;10.358;2022-07-23T14:04:48;35.90;81.00
22850;DHT22;11591;44.792;10.358;2022-07-23T14:07:14;35.80;81.50
22850;DHT22;11591;44.792;10.358;2022-07-23T14:09:40;35.90;81.90
22850;DHT22;11591;44.792;10.358;2022-07-23T14:12:06;35.80;81.80
22850;DHT22;11591;44.792;10.358;2022-07-23T14:14:33;35.80;82.20
22850;DHT22;11591;44.792;10.358;2022-07-23T14:16:58;35.90;81.90
22850;DHT22;11591;44.792;10.358;2022-07-23T14:19:24;36.00;81.90
22850;DHT22;11591;44.792;10.358;2022-07-23T14:21:50;36.00;81.70
22850;DHT22;11591;44.792;10.358;2022-07-23T14:24:16;36.10;81.80
22850;DHT22;11591;44.792;10.358;2022-07-23T14:26:42;36.10;81.40
22850;DHT22;11591;44.792;10.358;2022-07-23T14:29:08;36.10;81.80
22850;DHT22;11591;44.792;10.358;2022-07-23T14:31:34;36.30;81.90
22850;DHT22;11591;44.792;10.358;2022-07-23T14:34:01;36.30;81.90
22850;DHT22;11591;44.792;10.358;2022-07-23T14:36:27;36.40;81.80
22850;DHT22;11591;44.792;10.358;2022-07-23T14:38:53;36.30;81.90
22850;DHT22;11591;44.792;10.358;2022-07-23T14:41:19;36.20;81.40
22850;DHT22;11591;44.792;10.358;2022-07-23T14:43:45;36.20;81.90
22850;DHT22;11591;44.792;10.358;2022-07-23T14:46:12;36.30;81.70
22850;DHT22;11591;44.792;10.358;2022-07-23T14:48:38;36.30;81.60
22850;DHT22;11591;44.792;10.358;2022-07-23T14:51:04;36.30;81.80
22850;DHT22;11591;44.792;10.358;2022-07-23T14:53:30;36.30;81.20
22850;DHT22;11591;44.792;10.358;2022-07-23T14:55:56;36.30;78.70
22850;DHT22;11591;44.792;10.358;2022-07-23T14:58:25;36.40;76.80
22850;DHT22;11591;44.792;10.358;2022-07-23T15:00:52;36.50;76.20
22850;DHT22;11591;44.792;10.358;2022-07-23T15:03:17;36.40;76.00
22850;DHT22;11591;44.792;10.358;2022-07-23T15:05:43;36.50;76.00
22850;DHT22;11591;44.792;10.358;2022-07-23T15:08:09;36.40;75.30
22850;DHT22;11591;44.792;10.358;2022-07-23T15:10:35;36.40;75.30
22850;DHT22;11591;44.792;10.358;2022-07-23T15:13:01;36.50;75.70
22850;DHT22;11591;44.792;10.358;2022-07-23T15:15:27;36.50;75.10
22850;DHT22;11591;44.792;10.358;2022-07-23T15:17:53;36.50;75.00
22850;DHT22;11591;44.792;10.358;2022-07-23T15:20:18;36.50;75.00
22850;DHT22;11591;44.792;10.358;2022-07-23T15:22:44;36.40;74.30
22850;DHT22;11591;44.792;10.358;2022-07-23T15:25:11;36.40;74.60
22850;DHT22;11591;44.792;10.358;2022-07-23T15:27:37;36.30;75.00
22850;DHT22;11591;44.792;10.358;2022-07-23T15:30:03;36.30;75.40
22850;DHT22;11591;44.792;10.358;2022-07-23T15:32:29;36.20;73.60
22850;DHT22;11591;44.792;10.358;2022-07-23T15:34:55;36.20;74.20
22850;DHT22;11591;44.792;10.358;2022-07-23T15:37:21;36.10;74.40
22850;DHT22;11591;44.792;10.358;2022-07-23T15:39:49;36.10;74.70
22850;DHT22;11591;44.792;10.358;2022-07-23T15:42:16;36.10;74.70
22850;DHT22;11591;44.792;10.358;2022-07-23T15:44:43;36.00;74.20
22850;DHT22;11591;44.792;10.358;2022-07-23T15:47:14;36.00;73.80
22850;DHT22;11591;44.792;10.358;2022-07-23T15:49:40;36.00;74.20
22850;DHT22;11591;44.792;10.358;2022-07-23T15:52:06;36.10;74.20
22850;DHT22;11591;44.792;10.358;2022-07-23T15:54:32;36.10;74.20
22850;DHT22;11591;44.792;10.358;2022-07-23T15:56:58;36.10;74.00
22850;DHT22;11591;44.792;10.358;2022-07-23T15:59:23;36.20;73.60
22850;DHT22;11591;44.792;10.358;2022-07-23T16:01:49;36.20;73.40